sensor_id;sensor_type;location;lat;lon;timestamp;pressure;altitude;pressure_sealevel;temperature;humidity
81990;BME280;71485;51.638;-0.182;2023-11-21T00:01:54;100374.65;;;20.95;35.81
81990;BME280;71485;51.638;-0.182;2023-11-21T00:04:11;100373.92;;;21.18;35.82
81990;BME280;71485;51.638;-0.182;2023-11-21T00:06:37;100374.66;;;20.64;35.92
81990;BME280;71485;51.638;-0.182;2023-11-21T00:09:03;100373.75;;;21.11;35.92
81990;BME280;71485;51.638;-0.182;2023-11-21T00:11:29;100377.81;;;20.84;35.97
81990;BME280;71485;51.638;-0.182;2023-11-21T00:13:55;100382.98;;;21.09;35.92
81990;BME280;71485;51.638;-0.182;2023-11-21T00:16:20;100387.59;;;21.31;35.92
81990;BME280;71485;51.638;-0.182;2023-11-21T00:18:45;100396.10;;;21.08;35.92
81990;BME280;71485;51.638;-0.182;2023-11-21T00:21:11;100395.28;;;21.05;35.97
81990;BME280;71485;51.638;-0.182;2023-11-21T00:23:36;100399.39;;;21.00;36.07
81990;BME280;71485;51.638;-0.182;2023-11-21T00:26:04;100402.99;;;21.24;36.07
81990;BME280;71485;51.638;-0.182;2023-11-21T00:28:29;100406.53;;;21.25;36.04
81990;BME280;71485;51.638;-0.182;2023-11-21T00:30:53;100407.34;;;21.00;36.07
81990;BME280;71485;51.638;-0.182;2023-11-21T00:33:20;100411.49;;;21.26;36.03
81990;BME280;71485;51.638;-0.182;2023-11-21T00:35:44;100413.40;;;20.95;36.16
81990;BME280;71485;51.638;-0.182;2023-11-21T00:38:11;100415.92;;;20.94;36.12
81990;BME280;71485;51.638;-0.182;2023-11-21T00:40:36;100422.55;;;20.69;36.16
81990;BME280;71485;51.638;-0.182;2023-11-21T00:43:03;100425.36;;;20.93;36.15
81990;BME280;71485;51.638;-0.182;2023-11-21T00:45:30;100425.84;;;20.86;36.32
81990;BME280;71485;51.638;-0.182;2023-11-21T00:47:52;100431.07;;;20.65;36.28
81990;BME280;71485;51.638;-0.182;2023-11-21T00:50:18;100435.77;;;20.97;36.16
81990;BME280;71485;51.638;-0.182;2023-11-21T00:52:44;100438.90;;;20.97;36.20
81990;BME280;71485;51.638;-0.182;2023-11-21T00:55:09;100439.33;;;20.70;36.25
81990;BME280;71485;51.638;-0.182;2023-11-21T00:57:35;100439.80;;;20.71;36.25
81990;BME280;71485;51.638;-0.182;2023-11-21T01:00:01;100442.94;;;20.97;36.14
81990;BME280;71485;51.638;-0.182;2023-11-21T01:02:26;100445.14;;;20.98;36.13
81990;BME280;71485;51.638;-0.182;2023-11-21T01:04:52;100445.25;;;21.04;36.00
81990;BME280;71485;51.638;-0.182;2023-11-21T01:07:18;100446.05;;;20.99;36.13
81990;BME280;71485;51.638;-0.182;2023-11-21T01:09:43;100450.80;;;20.75;36.14
81990;BME280;71485;51.638;-0.182;2023-11-21T01:12:10;100449.11;;;20.96;36.15
81990;BME280;71485;51.638;-0.182;2023-11-21T01:14:34;100450.14;;;20.68;36.23
81990;BME280;71485;51.638;-0.182;2023-11-21T01:17:00;100447.85;;;20.89;36.25
81990;BME280;71485;51.638;-0.182;2023-11-21T01:19:26;100450.02;;;20.86;36.31
81990;BME280;71485;51.638;-0.182;2023-11-21T01:21:51;100453.84;;;20.90;36.27
81990;BME280;71485;51.638;-0.182;2023-11-21T01:24:17;100459.79;;;20.93;36.16
81990;BME280;71485;51.638;-0.182;2023-11-21T01:26:44;100462.71;;;20.87;36.25
81990;BME280;71485;51.638;-0.182;2023-11-21T01:29:08;100464.71;;;20.85;36.28
81990;BME280;71485;51.638;-0.182;2023-11-21T01:31:34;100467.62;;;20.39;36.26
81990;BME280;71485;51.638;-0.182;2023-11-21T01:34:01;100469.66;;;20.82;36.32
81990;BME280;71485;51.638;-0.182;2023-11-21T01:36:30;100473.67;;;21.07;36.32
81990;BME280;71485;51.638;-0.182;2023-11-21T01:38:51;100477.48;;;20.78;36.36
81990;BME280;71485;51.638;-0.182;2023-11-21T01:41:16;100484.47;;;21.00;36.38
81990;BME280;71485;51.638;-0.182;2023-11-21T01:43:43;100489.40;;;20.77;36.37
81990;BME280;71485;51.638;-0.182;2023-11-21T01:46:08;100489.65;;;21.06;36.28
81990;BME280;71485;51.638;-0.182;2023-11-21T01:48:33;100491.42;;;20.53;36.32
81990;BME280;71485;51.638;-0.182;2023-11-21T01:50:59;100492.48;;;20.76;36.36
81990;BME280;71485;51.638;-0.182;2023-11-21T01:53:26;100495.79;;;20.98;36.37
81990;BME280;71485;51.638;-0.182;2023-11-21T01:55:50;100500.67;;;20.78;36.32
81990;BME280;71485;51.638;-0.182;2023-11-21T01:58:16;100505.51;;;20.45;36.47
81990;BME280;71485;51.638;-0.182;2023-11-21T02:00:41;100508.33;;;20.72;36.40
81990;BME280;71485;51.638;-0.182;2023-11-21T02:03:07;100512.76;;;20.94;36.41
81990;BME280;71485;51.638;-0.182;2023-11-21T02:05:33;100518.56;;;20.76;36.28
81990;BME280;71485;51.638;-0.182;2023-11-21T02:07:58;100522.41;;;20.77;36.25
81990;BME280;71485;51.638;-0.182;2023-11-21T02:10:24;100521.32;;;20.97;36.30
81990;BME280;71485;51.638;-0.182;2023-11-21T02:12:51;100524.74;;;20.73;36.30
81990;BME280;71485;51.638;-0.182;2023-11-21T02:15:15;100526.51;;;20.94;36.31
81990;BME280;71485;51.638;-0.182;2023-11-21T02:17:41;100530.77;;;20.41;36.42
81990;BME280;71485;51.638;-0.182;2023-11-21T02:20:07;100530.39;;;20.88;36.41
81990;BME280;71485;51.638;-0.182;2023-11-21T02:22:34;100531.97;;;20.62;36.46
81990;BME280;71485;51.638;-0.182;2023-11-21T02:24:57;100533.80;;;20.60;36.50
81990;BME280;71485;51.638;-0.182;2023-11-21T02:27:24;100538.21;;;20.83;36.48
81990;BME280;71485;51.638;-0.182;2023-11-21T02:29:49;100544.08;;;20.58;36.51
81990;BME280;71485;51.638;-0.182;2023-11-21T02:32:14;100546.72;;;20.58;36.50
81990;BME280;71485;51.638;-0.182;2023-11-21T02:34:40;100551.67;;;20.31;36.56
81990;BME280;71485;51.638;-0.182;2023-11-21T02:37:05;100554.09;;;20.54;36.56
81990;BME280;71485;51.638;-0.182;2023-11-21T02:39:32;100559.12;;;20.57;36.55
81990;BME280;71485;51.638;-0.182;2023-11-21T02:41:57;100561.71;;;20.76;36.56
81990;BME280;71485;51.638;-0.182;2023-11-21T02:44:24;100565.46;;;20.34;36.47
81990;BME280;71485;51.638;-0.182;2023-11-21T02:46:48;100563.63;;;20.77;36.57
81990;BME280;71485;51.638;-0.182;2023-11-21T02:49:14;100566.21;;;20.78;36.51
81990;BME280;71485;51.638;-0.182;2023-11-21T02:51:40;100568.16;;;20.54;36.43
81990;BME280;71485;51.638;-0.182;2023-11-21T02:54:06;100572.67;;;20.51;36.51
81990;BME280;71485;51.638;-0.182;2023-11-21T02:56:31;100578.50;;;20.73;36.52
81990;BME280;71485;51.638;-0.182;2023-11-21T02:58:57;100584.06;;;20.74;36.45
81990;BME280;71485;51.638;-0.182;2023-11-21T03:01:22;100586.29;;;20.76;36.40
81990;BME280;71485;51.638;-0.182;2023-11-21T03:03:47;100588.07;;;20.47;36.47
81990;BME280;71485;51.638;-0.182;2023-11-21T03:06:13;100592.54;;;20.70;36.49
81990;BME280;71485;51.638;-0.182;2023-11-21T03:08:39;100596.72;;;20.43;36.52
81990;BME280;71485;51.638;-0.182;2023-11-21T03:11:05;100596.45;;;20.41;36.51
81990;BME280;71485;51.638;-0.182;2023-11-21T03:13:30;100601.47;;;20.70;36.38
81990;BME280;71485;51.638;-0.182;2023-11-21T03:15:57;100599.30;;;20.40;36.43
81990;BME280;71485;51.638;-0.182;2023-11-21T03:18:21;100602.10;;;20.61;36.46
81990;BME280;71485;51.638;-0.182;2023-11-21T03:20:47;100601.26;;;20.36;36.45
81990;BME280;71485;51.638;-0.182;2023-11-21T03:23:13;100606.20;;;20.35;36.49
81990;BME280;71485;51.638;-0.182;2023-11-21T03:25:39;100609.20;;;20.08;36.54
81990;BME280;71485;51.638;-0.182;2023-11-21T03:28:04;100609.87;;;20.58;36.45
81990;BME280;71485;51.638;-0.182;2023-11-21T03:30:29;100610.79;;;20.51;36.61
81990;BME280;71485;51.638;-0.182;2023-11-21T03:32:55;100612.45;;;20.48;36.55
81990;BME280;71485;51.638;-0.182;2023-11-21T03:35:20;100618.85;;;20.52;36.50
81990;BME280;71485;51.638;-0.182;2023-11-21T03:37:48;100626.49;;;20.49;36.60
81990;BME280;71485;51.638;-0.182;2023-11-21T03:40:12;100633.18;;;20.48;36.61
81990;BME280;71485;51.638;-0.182;2023-11-21T03:42:39;100638.09;;;20.48;36.65
81990;BME280;71485;51.638;-0.182;2023-11-21T03:45:05;100641.24;;;20.44;36.75
81990;BME280;71485;51.638;-0.182;2023-11-21T03:47:28;100642.01;;;20.42;36.76
81990;BME280;71485;51.638;-0.182;2023-11-21T03:49:54;100645.30;;;20.43;36.71
81990;BME280;71485;51.638;-0.182;2023-11-21T03:52:20;100648.25;;;20.43;36.70
81990;BME280;71485;51.638;-0.182;2023-11-21T03:54:47;100650.74;;;20.42;36.73
81990;BME280;71485;51.638;-0.182;2023-11-21T03:57:11;100652.52;;;20.18;36.75
81990;BME280;71485;51.638;-0.182;2023-11-21T03:59:39;100654.73;;;20.14;36.83
81990;BME280;71485;51.638;-0.182;2023-11-21T04:02:02;100661.24;;;20.37;36.83
81990;BME280;71485;51.638;-0.182;2023-11-21T04:04:28;100664.60;;;20.34;36.87
81990;BME280;71485;51.638;-0.182;2023-11-21T04:06:53;100664.91;;;20.35;36.87
81990;BME280;71485;51.638;-0.182;2023-11-21T04:09:19;100670.25;;;20.34;36.94
81990;BME280;71485;51.638;-0.182;2023-11-21T04:11:46;100676.64;;;20.33;36.94
81990;BME280;71485;51.638;-0.182;2023-11-21T04:14:10;100679.45;;;20.33;36.94
81990;BME280;71485;51.638;-0.182;2023-11-21T04:16:37;100686.85;;;20.07;36.94
81990;BME280;71485;51.638;-0.182;2023-11-21T04:19:01;100686.08;;;20.31;36.97
81990;BME280;71485;51.638;-0.182;2023-11-21T04:21:27;100687.78;;;20.30;36.93
81990;BME280;71485;51.638;-0.182;2023-11-21T04:23:53;100691.10;;;20.22;37.06
81990;BME280;71485;51.638;-0.182;2023-11-21T04:26:20;100692.57;;;20.22;37.06
81990;BME280;71485;51.638;-0.182;2023-11-21T04:28:44;100698.48;;;20.26;36.97
81990;BME280;71485;51.638;-0.182;2023-11-21T04:31:10;100706.61;;;20.26;36.95
81990;BME280;71485;51.638;-0.182;2023-11-21T04:33:35;100710.70;;;20.00;36.97
81990;BME280;71485;51.638;-0.182;2023-11-21T04:36:01;100713.33;;;20.26;36.93
81990;BME280;71485;51.638;-0.182;2023-11-21T04:38:27;100714.26;;;20.26;36.95
81990;BME280;71485;51.638;-0.182;2023-11-21T04:40:52;100717.80;;;20.49;36.93
81990;BME280;71485;51.638;-0.182;2023-11-21T04:43:19;100723.22;;;20.24;36.92
81990;BME280;71485;51.638;-0.182;2023-11-21T04:45:43;100728.64;;;20.23;36.87
81990;BME280;71485;51.638;-0.182;2023-11-21T04:48:09;100734.98;;;20.23;36.81
81990;BME280;71485;51.638;-0.182;2023-11-21T04:50:35;100738.13;;;19.98;36.77
81990;BME280;71485;51.638;-0.182;2023-11-21T04:53:02;100739.64;;;20.21;36.72
81990;BME280;71485;51.638;-0.182;2023-11-21T04:55:26;100744.31;;;20.46;36.64
81990;BME280;71485;51.638;-0.182;2023-11-21T04:57:51;100747.94;;;20.21;36.56
81990;BME280;71485;51.638;-0.182;2023-11-21T05:00:17;100747.25;;;20.17;36.49
81990;BME280;71485;51.638;-0.182;2023-11-21T05:02:43;100751.26;;;19.91;36.55
81990;BME280;71485;51.638;-0.182;2023-11-21T05:05:10;100749.67;;;20.12;36.63
81990;BME280;71485;51.638;-0.182;2023-11-21T05:07:34;100750.66;;;19.76;36.54
81990;BME280;71485;51.638;-0.182;2023-11-21T05:09:59;100750.58;;;20.28;36.62
81990;BME280;71485;51.638;-0.182;2023-11-21T05:12:26;100753.44;;;20.25;36.84
81990;BME280;71485;51.638;-0.182;2023-11-21T05:14:51;100756.32;;;20.29;36.98
81990;BME280;71485;51.638;-0.182;2023-11-21T05:17:17;100756.06;;;20.31;37.08
81990;BME280;71485;51.638;-0.182;2023-11-21T05:19:42;100756.39;;;20.14;37.04
81990;BME280;71485;51.638;-0.182;2023-11-21T05:22:09;100756.17;;;20.40;37.12
81990;BME280;71485;51.638;-0.182;2023-11-21T05:24:33;100756.90;;;20.19;37.14
81990;BME280;71485;51.638;-0.182;2023-11-21T05:26:59;100756.42;;;20.45;37.17
81990;BME280;71485;51.638;-0.182;2023-11-21T05:29:24;100757.41;;;20.48;37.15
81990;BME280;71485;51.638;-0.182;2023-11-21T05:31:50;100765.84;;;20.26;37.17
81990;BME280;71485;51.638;-0.182;2023-11-21T05:34:16;100768.68;;;20.47;37.26
81990;BME280;71485;51.638;-0.182;2023-11-21T05:36:43;100777.22;;;20.53;37.21
81990;BME280;71485;51.638;-0.182;2023-11-21T05:39:07;100776.04;;;20.73;37.33
81990;BME280;71485;51.638;-0.182;2023-11-21T05:41:33;100784.13;;;20.57;37.27
81990;BME280;71485;51.638;-0.182;2023-11-21T05:43:59;100791.57;;;20.62;37.24
81990;BME280;71485;51.638;-0.182;2023-11-21T05:46:24;100798.12;;;20.57;37.31
81990;BME280;71485;51.638;-0.182;2023-11-21T05:48:49;100807.15;;;20.35;37.33
81990;BME280;71485;51.638;-0.182;2023-11-21T05:51:20;100813.84;;;20.34;37.34
81990;BME280;71485;51.638;-0.182;2023-11-21T05:53:41;100819.17;;;20.59;37.38
81990;BME280;71485;51.638;-0.182;2023-11-21T05:56:08;100827.75;;;20.60;37.37
81990;BME280;71485;51.638;-0.182;2023-11-21T05:58:32;100829.99;;;20.58;37.44
81990;BME280;71485;51.638;-0.182;2023-11-21T06:00:59;100835.17;;;20.37;37.43
81990;BME280;71485;51.638;-0.182;2023-11-21T06:03:23;100839.43;;;20.41;37.40
81990;BME280;71485;51.638;-0.182;2023-11-21T06:05:49;100843.08;;;20.61;37.40
81990;BME280;71485;51.638;-0.182;2023-11-21T06:08:14;100845.88;;;20.55;37.34
81990;BME280;71485;51.638;-0.182;2023-11-21T06:10:41;100853.68;;;20.55;37.26
81990;BME280;71485;51.638;-0.182;2023-11-21T06:13:07;100850.60;;;20.56;37.22
81990;BME280;71485;51.638;-0.182;2023-11-21T06:15:31;100851.87;;;20.67;36.92
81990;BME280;71485;51.638;-0.182;2023-11-21T06:17:57;100851.52;;;20.61;36.89
81990;BME280;71485;51.638;-0.182;2023-11-21T06:20:22;100852.25;;;20.58;36.92
81990;BME280;71485;51.638;-0.182;2023-11-21T06:22:49;100860.85;;;20.33;36.86
81990;BME280;71485;51.638;-0.182;2023-11-21T06:25:14;100865.92;;;20.53;36.85
81990;BME280;71485;51.638;-0.182;2023-11-21T06:27:42;100862.45;;;20.29;36.83
81990;BME280;71485;51.638;-0.182;2023-11-21T06:30:08;100861.78;;;20.49;36.88
81990;BME280;71485;51.638;-0.182;2023-11-21T06:32:31;100862.46;;;20.26;36.81
81990;BME280;71485;51.638;-0.182;2023-11-21T06:34:56;100867.94;;;20.24;36.85
81990;BME280;71485;51.638;-0.182;2023-11-21T06:37:22;100867.65;;;20.47;36.82
81990;BME280;71485;51.638;-0.182;2023-11-21T06:39:48;100871.32;;;20.48;36.75
81990;BME280;71485;51.638;-0.182;2023-11-21T06:42:13;100869.39;;;20.43;36.76
81990;BME280;71485;51.638;-0.182;2023-11-21T06:44:40;100879.00;;;20.41;36.76
81990;BME280;71485;51.638;-0.182;2023-11-21T06:47:05;100881.10;;;20.38;36.71
81990;BME280;71485;51.638;-0.182;2023-11-21T06:49:30;100883.04;;;20.36;36.71
81990;BME280;71485;51.638;-0.182;2023-11-21T06:51:56;100880.48;;;20.37;36.70
81990;BME280;71485;51.638;-0.182;2023-11-21T06:54:21;100889.52;;;20.09;36.70
81990;BME280;71485;51.638;-0.182;2023-11-21T06:56:48;100896.13;;;20.06;36.76
81990;BME280;71485;51.638;-0.182;2023-11-21T06:59:12;100900.36;;;20.29;36.74
81990;BME280;71485;51.638;-0.182;2023-11-21T07:01:41;100905.71;;;20.28;37.51
81990;BME280;71485;51.638;-0.182;2023-11-21T07:04:05;100914.42;;;20.15;37.77
81990;BME280;71485;51.638;-0.182;2023-11-21T07:06:29;100914.90;;;20.53;37.57
81990;BME280;71485;51.638;-0.182;2023-11-21T07:08:55;100916.29;;;20.55;37.46
81990;BME280;71485;51.638;-0.182;2023-11-21T07:11:21;100921.23;;;20.76;37.19
81990;BME280;71485;51.638;-0.182;2023-11-21T07:13:47;100918.92;;;20.57;37.11
81990;BME280;71485;51.638;-0.182;2023-11-21T07:16:12;100924.17;;;20.66;37.01
81990;BME280;71485;51.638;-0.182;2023-11-21T07:18:37;100929.21;;;20.79;36.93
81990;BME280;71485;51.638;-0.182;2023-11-21T07:21:03;100933.02;;;20.44;36.93
81990;BME280;71485;51.638;-0.182;2023-11-21T07:23:28;100935.85;;;20.56;36.89
81990;BME280;71485;51.638;-0.182;2023-11-21T07:25:55;100946.22;;;20.88;36.83
81990;BME280;71485;51.638;-0.182;2023-11-21T07:28:20;100952.54;;;20.88;36.70
81990;BME280;71485;51.638;-0.182;2023-11-21T07:30:45;100954.49;;;21.00;36.42
81990;BME280;71485;51.638;-0.182;2023-11-21T07:33:11;100957.53;;;20.75;36.43
81990;BME280;71485;51.638;-0.182;2023-11-21T07:35:36;100964.51;;;20.86;36.34
81990;BME280;71485;51.638;-0.182;2023-11-21T07:38:03;100969.35;;;21.27;36.33
81990;BME280;71485;51.638;-0.182;2023-11-21T07:40:28;100968.63;;;20.91;36.21
81990;BME280;71485;51.638;-0.182;2023-11-21T07:42:53;100969.24;;;20.68;36.29
81990;BME280;71485;51.638;-0.182;2023-11-21T07:45:19;100975.59;;;20.83;36.35
81990;BME280;71485;51.638;-0.182;2023-11-21T07:47:44;100985.99;;;20.52;36.39
81990;BME280;71485;51.638;-0.182;2023-11-21T07:50:10;100995.25;;;20.44;36.45
81990;BME280;71485;51.638;-0.182;2023-11-21T07:52:37;100994.20;;;20.40;36.46
81990;BME280;71485;51.638;-0.182;2023-11-21T07:55:02;101002.96;;;20.35;36.47
81990;BME280;71485;51.638;-0.182;2023-11-21T07:57:27;101008.56;;;20.82;36.48
81990;BME280;71485;51.638;-0.182;2023-11-21T07:59:53;101009.49;;;20.78;36.56
81990;BME280;71485;51.638;-0.182;2023-11-21T08:02:22;101011.97;;;20.53;36.64
81990;BME280;71485;51.638;-0.182;2023-11-21T08:04:43;101011.51;;;20.28;36.68
81990;BME280;71485;51.638;-0.182;2023-11-21T08:07:09;101015.81;;;20.54;36.70
81990;BME280;71485;51.638;-0.182;2023-11-21T08:09:35;101022.71;;;20.07;36.73
81990;BME280;71485;51.638;-0.182;2023-11-21T08:12:03;101023.45;;;20.56;36.66
81990;BME280;71485;51.638;-0.182;2023-11-21T08:14:25;101026.07;;;20.53;36.74
81990;BME280;71485;51.638;-0.182;2023-11-21T08:16:51;101029.60;;;20.50;36.77
81990;BME280;71485;51.638;-0.182;2023-11-21T08:19:16;101031.45;;;20.49;36.76
81990;BME280;71485;51.638;-0.182;2023-11-21T08:21:41;101038.07;;;20.49;36.75
81990;BME280;71485;51.638;-0.182;2023-11-21T08:24:07;101041.60;;;20.48;36.75
81990;BME280;71485;51.638;-0.182;2023-11-21T08:26:33;101042.71;;;20.46;36.75
81990;BME280;71485;51.638;-0.182;2023-11-21T08:28:57;101044.02;;;20.47;36.70
81990;BME280;71485;51.638;-0.182;2023-11-21T08:31:25;101047.71;;;20.48;36.65
81990;BME280;71485;51.638;-0.182;2023-11-21T08:33:49;101053.54;;;20.46;36.70
81990;BME280;71485;51.638;-0.182;2023-11-21T08:36:13;101059.17;;;20.47;36.67
81990;BME280;71485;51.638;-0.182;2023-11-21T08:38:40;101068.01;;;20.25;36.65
81990;BME280;71485;51.638;-0.182;2023-11-21T08:41:05;101072.92;;;20.50;36.61
81990;BME280;71485;51.638;-0.182;2023-11-21T08:43:31;101075.52;;;20.47;36.65
81990;BME280;71485;51.638;-0.182;2023-11-21T08:45:54;101077.99;;;20.45;36.63
81990;BME280;71485;51.638;-0.182;2023-11-21T08:48:19;101072.61;;;20.46;36.61
81990;BME280;71485;51.638;-0.182;2023-11-21T08:50:45;101076.04;;;20.22;36.62
81990;BME280;71485;51.638;-0.182;2023-11-21T08:53:11;101076.63;;;20.48;36.57
81990;BME280;71485;51.638;-0.182;2023-11-21T08:55:36;101077.17;;;20.20;36.62
81990;BME280;71485;51.638;-0.182;2023-11-21T08:58:02;101080.43;;;20.46;36.60
81990;BME280;71485;51.638;-0.182;2023-11-21T09:00:28;101080.39;;;20.45;36.60
81990;BME280;71485;51.638;-0.182;2023-11-21T09:02:53;101082.65;;;20.46;36.57
81990;BME280;71485;51.638;-0.182;2023-11-21T09:05:17;101090.03;;;20.24;36.56
81990;BME280;71485;51.638;-0.182;2023-11-21T09:07:43;101087.36;;;20.20;36.62
81990;BME280;71485;51.638;-0.182;2023-11-21T09:10:09;101092.26;;;20.41;36.67
81990;BME280;71485;51.638;-0.182;2023-11-21T09:12:34;101095.18;;;20.20;36.62
81990;BME280;71485;51.638;-0.182;2023-11-21T09:14:59;101096.90;;;20.43;36.64
81990;BME280;71485;51.638;-0.182;2023-11-21T09:17:24;101099.48;;;20.48;36.56
81990;BME280;71485;51.638;-0.182;2023-11-21T09:19:50;101101.36;;;20.50;36.51
81990;BME280;71485;51.638;-0.182;2023-11-21T09:22:16;101096.95;;;20.47;36.66
81990;BME280;71485;51.638;-0.182;2023-11-21T09:24:46;101101.34;;;20.25;36.67
81990;BME280;71485;51.638;-0.182;2023-11-21T09:27:09;101104.72;;;20.56;36.78
81990;BME280;71485;51.638;-0.182;2023-11-21T09:29:33;101110.57;;;20.39;37.37
81990;BME280;71485;51.638;-0.182;2023-11-21T09:31:58;101113.27;;;20.69;37.71
81990;BME280;71485;51.638;-0.182;2023-11-21T09:34:23;101114.60;;;20.73;38.14
81990;BME280;71485;51.638;-0.182;2023-11-21T09:36:50;101120.77;;;20.71;38.30
81990;BME280;71485;51.638;-0.182;2023-11-21T09:39:18;101121.87;;;20.51;38.45
81990;BME280;71485;51.638;-0.182;2023-11-21T09:41:43;101128.57;;;20.30;38.42
81990;BME280;71485;51.638;-0.182;2023-11-21T09:44:09;101130.52;;;20.81;38.40
81990;BME280;71485;51.638;-0.182;2023-11-21T09:46:31;101140.08;;;20.82;38.37
81990;BME280;71485;51.638;-0.182;2023-11-21T09:48:59;101143.79;;;20.60;38.39
81990;BME280;71485;51.638;-0.182;2023-11-21T09:51:24;101139.75;;;20.58;38.37
81990;BME280;71485;51.638;-0.182;2023-11-21T09:53:47;101141.55;;;20.61;38.30
81990;BME280;71485;51.638;-0.182;2023-11-21T09:56:12;101148.35;;;20.87;38.22
81990;BME280;71485;51.638;-0.182;2023-11-21T09:58:37;101149.62;;;20.44;38.34
81990;BME280;71485;51.638;-0.182;2023-11-21T10:01:03;101152.27;;;20.90;38.30
81990;BME280;71485;51.638;-0.182;2023-11-21T10:03:28;101155.73;;;20.45;38.20
81990;BME280;71485;51.638;-0.182;2023-11-21T10:05:53;101157.74;;;20.45;38.12
81990;BME280;71485;51.638;-0.182;2023-11-21T10:08:20;101157.81;;;20.73;38.03
81990;BME280;71485;51.638;-0.182;2023-11-21T10:10:46;101159.09;;;20.48;37.98
81990;BME280;71485;51.638;-0.182;2023-11-21T10:13:12;101161.92;;;21.02;37.89
81990;BME280;71485;51.638;-0.182;2023-11-21T10:15:35;101162.78;;;20.56;37.83
81990;BME280;71485;51.638;-0.182;2023-11-21T10:18:00;101167.02;;;20.78;37.86
81990;BME280;71485;51.638;-0.182;2023-11-21T10:20:27;101166.81;;;20.57;37.80
81990;BME280;71485;51.638;-0.182;2023-11-21T10:22:51;101165.34;;;20.59;37.79
81990;BME280;71485;51.638;-0.182;2023-11-21T10:25:16;101168.13;;;21.12;37.78
81990;BME280;71485;51.638;-0.182;2023-11-21T10:27:42;101171.30;;;20.96;37.89
81990;BME280;71485;51.638;-0.182;2023-11-21T10:30:08;101167.30;;;20.88;38.50
81990;BME280;71485;51.638;-0.182;2023-11-21T10:32:33;101170.51;;;21.14;39.00
81990;BME280;71485;51.638;-0.182;2023-11-21T10:34:58;101174.24;;;20.96;39.11
81990;BME280;71485;51.638;-0.182;2023-11-21T10:37:24;101175.29;;;20.97;39.15
81990;BME280;71485;51.638;-0.182;2023-11-21T10:39:50;101177.96;;;20.76;39.12
81990;BME280;71485;51.638;-0.182;2023-11-21T10:42:18;101180.49;;;21.04;38.71
81990;BME280;71485;51.638;-0.182;2023-11-21T10:44:41;101181.00;;;20.86;38.34
81990;BME280;71485;51.638;-0.182;2023-11-21T10:47:08;101184.07;;;20.97;38.27
81990;BME280;71485;51.638;-0.182;2023-11-21T10:49:32;101188.25;;;20.96;38.98
81990;BME280;71485;51.638;-0.182;2023-11-21T10:51:59;101191.91;;;20.91;39.20
81990;BME280;71485;51.638;-0.182;2023-11-21T10:54:24;101192.18;;;21.13;39.36
81990;BME280;71485;51.638;-0.182;2023-11-21T10:56:50;101192.05;;;20.89;39.31
81990;BME280;71485;51.638;-0.182;2023-11-21T10:59:13;101188.95;;;20.93;39.17
81990;BME280;71485;51.638;-0.182;2023-11-21T11:01:42;101188.19;;;21.00;39.05
81990;BME280;71485;51.638;-0.182;2023-11-21T11:04:06;101190.27;;;20.94;39.04
81990;BME280;71485;51.638;-0.182;2023-11-21T11:06:31;101195.19;;;20.99;38.95
81990;BME280;71485;51.638;-0.182;2023-11-21T11:08:56;101196.90;;;20.97;38.87
81990;BME280;71485;51.638;-0.182;2023-11-21T11:11:22;101192.83;;;20.97;38.75
81990;BME280;71485;51.638;-0.182;2023-11-21T11:13:55;101193.76;;;21.02;38.50
81990;BME280;71485;51.638;-0.182;2023-11-21T11:16:18;101193.42;;;21.24;38.35
81990;BME280;71485;51.638;-0.182;2023-11-21T11:18:39;101195.29;;;21.00;38.24
81990;BME280;71485;51.638;-0.182;2023-11-21T11:21:13;101196.24;;;20.98;38.13
81990;BME280;71485;51.638;-0.182;2023-11-21T11:23:42;101198.56;;;20.99;37.98
81990;BME280;71485;51.638;-0.182;2023-11-21T11:26:07;101196.94;;;20.97;37.83
81990;BME280;71485;51.638;-0.182;2023-11-21T11:28:26;101204.24;;;21.21;37.73
81990;BME280;71485;51.638;-0.182;2023-11-21T11:30:57;101203.23;;;20.91;37.62
81990;BME280;71485;51.638;-0.182;2023-11-21T11:33:21;101203.78;;;21.15;37.54
81990;BME280;71485;51.638;-0.182;2023-11-21T11:35:46;101204.89;;;20.93;37.40
81990;BME280;71485;51.638;-0.182;2023-11-21T11:38:04;101213.05;;;20.87;37.37
81990;BME280;71485;51.638;-0.182;2023-11-21T11:40:38;101209.68;;;21.09;37.16
81990;BME280;71485;51.638;-0.182;2023-11-21T11:42:57;101213.93;;;20.85;37.20
81990;BME280;71485;51.638;-0.182;2023-11-21T11:45:21;101218.85;;;20.86;37.13
81990;BME280;71485;51.638;-0.182;2023-11-21T11:47:47;101220.15;;;21.06;37.14
81990;BME280;71485;51.638;-0.182;2023-11-21T11:50:12;101221.70;;;21.09;37.06
81990;BME280;71485;51.638;-0.182;2023-11-21T11:52:40;101223.78;;;20.82;37.06
81990;BME280;71485;51.638;-0.182;2023-11-21T11:55:03;101225.44;;;21.06;37.05
81990;BME280;71485;51.638;-0.182;2023-11-21T11:57:30;101227.16;;;21.04;37.01
81990;BME280;71485;51.638;-0.182;2023-11-21T12:00:10;101226.42;;;21.01;36.88
81990;BME280;71485;51.638;-0.182;2023-11-21T12:02:23;101220.27;;;20.98;36.94
81990;BME280;71485;51.638;-0.182;2023-11-21T12:04:45;101226.35;;;20.76;36.90
81990;BME280;71485;51.638;-0.182;2023-11-21T12:07:13;101230.94;;;20.75;36.93
81990;BME280;71485;51.638;-0.182;2023-11-21T12:09:37;101232.92;;;20.73;36.91
81990;BME280;71485;51.638;-0.182;2023-11-21T12:12:03;101236.80;;;20.96;36.94
81990;BME280;71485;51.638;-0.182;2023-11-21T12:14:27;101242.15;;;21.08;37.72
81990;BME280;71485;51.638;-0.182;2023-11-21T12:16:54;101247.01;;;20.79;38.35
81990;BME280;71485;51.638;-0.182;2023-11-21T12:19:19;101253.67;;;20.85;38.47
81990;BME280;71485;51.638;-0.182;2023-11-21T12:21:44;101256.93;;;20.71;38.19
81990;BME280;71485;51.638;-0.182;2023-11-21T12:24:10;101257.34;;;21.11;38.30
81990;BME280;71485;51.638;-0.182;2023-11-21T12:26:36;101258.10;;;21.31;37.83
81990;BME280;71485;51.638;-0.182;2023-11-21T12:29:01;101263.28;;;21.35;37.67
81990;BME280;71485;51.638;-0.182;2023-11-21T12:31:26;101264.09;;;21.62;37.44